sensor_id;sensor_type;location;lat;lon;timestamp;P1;durP1;ratioP1;P2;durP2;ratioP2
49015;SDS011;34830;44.064;12.566;2023-09-07T00:01:45;6.10;;;3.30;;
49015;SDS011;34830;44.064;12.566;2023-09-07T00:04:11;5.13;;;2.70;;
49015;SDS011;34830;44.064;12.566;2023-09-07T00:06:40;5.28;;;2.72;;
49015;SDS011;34830;44.064;12.566;2023-09-07T00:09:09;6.85;;;2.97;;
49015;SDS011;34830;44.064;12.566;2023-09-07T00:11:37;3.63;;;2.60;;
49015;SDS011;34830;44.064;12.566;2023-09-07T00:14:03;7.25;;;2.80;;
49015;SDS011;34830;44.064;12.566;2023-09-07T00:16:33;5.90;;;2.38;;
49015;SDS011;34830;44.064;12.566;2023-09-07T00:19:01;3.33;;;2.15;;
49015;SDS011;34830;44.064;12.566;2023-09-07T00:21:28;4.60;;;2.75;;
49015;SDS011;34830;44.064;12.566;2023-09-07T00:23:54;4.93;;;2.53;;
49015;SDS011;34830;44.064;12.566;2023-09-07T00:26:21;6.25;;;2.85;;
49015;SDS011;34830;44.064;12.566;2023-09-07T00:28:47;6.07;;;3.00;;
49015;SDS011;34830;44.064;12.566;2023-09-07T00:31:13;4.45;;;2.88;;
49015;SDS011;34830;44.064;12.566;2023-09-07T00:33:39;5.72;;;3.05;;
49015;SDS011;34830;44.064;12.566;2023-09-07T00:36:05;9.60;;;3.13;;
49015;SDS011;34830;44.064;12.566;2023-09-07T00:38:31;8.07;;;3.08;;
49015;SDS011;34830;44.064;12.566;2023-09-07T00:40:58;10.35;;;2.58;;
49015;SDS011;34830;44.064;12.566;2023-09-07T00:43:24;5.40;;;2.78;;
49015;SDS011;34830;44.064;12.566;2023-09-07T00:45:50;12.02;;;3.53;;
49015;SDS011;34830;44.064;12.566;2023-09-07T00:48:16;11.93;;;2.90;;
49015;SDS011;34830;44.064;12.566;2023-09-07T00:50:42;6.65;;;2.85;;
49015;SDS011;34830;44.064;12.566;2023-09-07T00:53:10;10.82;;;3.00;;
49015;SDS011;34830;44.064;12.566;2023-09-07T00:55:36;7.57;;;3.17;;
49015;SDS011;34830;44.064;12.566;2023-09-07T00:58:03;9.65;;;3.00;;
49015;SDS011;34830;44.064;12.566;2023-09-07T01:00:30;11.40;;;2.75;;
49015;SDS011;34830;44.064;12.566;2023-09-07T01:02:56;8.02;;;3.63;;
49015;SDS011;34830;44.064;12.566;2023-09-07T01:05:24;5.55;;;2.90;;
49015;SDS011;34830;44.064;12.566;2023-09-07T01:08:05;6.68;;;2.50;;
49015;SDS011;34830;44.064;12.566;2023-09-07T01:10:36;6.65;;;3.28;;
49015;SDS011;34830;44.064;12.566;2023-09-07T01:13:02;5.22;;;2.80;;
49015;SDS011;34830;44.064;12.566;2023-09-07T01:15:28;5.50;;;2.88;;
49015;SDS011;34830;44.064;12.566;2023-09-07T01:17:55;7.88;;;3.03;;
49015;SDS011;34830;44.064;12.566;2023-09-07T01:20:22;14.18;;;3.17;;
49015;SDS011;34830;44.064;12.566;2023-09-07T01:22:49;6.45;;;3.38;;
49015;SDS011;34830;44.064;12.566;2023-09-07T01:25:15;9.50;;;3.30;;
49015;SDS011;34830;44.064;12.566;2023-09-07T01:27:41;4.40;;;2.58;;
49015;SDS011;34830;44.064;12.566;2023-09-07T01:30:08;5.40;;;2.88;;
49015;SDS011;34830;44.064;12.566;2023-09-07T01:32:35;8.45;;;3.20;;
49015;SDS011;34830;44.064;12.566;2023-09-07T01:35:01;18.67;;;3.63;;
49015;SDS011;34830;44.064;12.566;2023-09-07T01:37:29;6.43;;;3.15;;
49015;SDS011;34830;44.064;12.566;2023-09-07T01:39:55;3.50;;;2.40;;
49015;SDS011;34830;44.064;12.566;2023-09-07T01:42:21;6.85;;;2.60;;
49015;SDS011;34830;44.064;12.566;2023-09-07T01:44:47;7.47;;;2.20;;
49015;SDS011;34830;44.064;12.566;2023-09-07T01:47:13;5.70;;;2.47;;
49015;SDS011;34830;44.064;12.566;2023-09-07T01:49:39;3.72;;;2.58;;
49015;SDS011;34830;44.064;12.566;2023-09-07T01:52:05;4.63;;;3.30;;
49015;SDS011;34830;44.064;12.566;2023-09-07T01:54:31;4.05;;;2.55;;
49015;SDS011;34830;44.064;12.566;2023-09-07T01:56:58;5.47;;;2.67;;
49015;SDS011;34830;44.064;12.566;2023-09-07T01:59:24;3.47;;;2.50;;
49015;SDS011;34830;44.064;12.566;2023-09-07T02:01:50;3.90;;;2.67;;
49015;SDS011;34830;44.064;12.566;2023-09-07T02:04:16;3.70;;;2.40;;
49015;SDS011;34830;44.064;12.566;2023-09-07T02:06:42;3.45;;;2.45;;
49015;SDS011;34830;44.064;12.566;2023-09-07T02:09:08;3.25;;;2.10;;
49015;SDS011;34830;44.064;12.566;2023-09-07T02:11:36;4.03;;;2.85;;
49015;SDS011;34830;44.064;12.566;2023-09-07T02:14:02;4.07;;;2.20;;
49015;SDS011;34830;44.064;12.566;2023-09-07T02:16:28;4.55;;;2.47;;
49015;SDS011;34830;44.064;12.566;2023-09-07T02:19:01;4.70;;;2.40;;
49015;SDS011;34830;44.064;12.566;2023-09-07T02:21:32;3.33;;;2.47;;
49015;SDS011;34830;44.064;12.566;2023-09-07T02:23:58;5.25;;;2.63;;
49015;SDS011;34830;44.064;12.566;2023-09-07T02:26:24;5.95;;;2.63;;
49015;SDS011;34830;44.064;12.566;2023-09-07T02:28:51;3.90;;;2.88;;
49015;SDS011;34830;44.064;12.566;2023-09-07T02:31:17;8.10;;;2.65;;
49015;SDS011;34830;44.064;12.566;2023-09-07T02:33:43;6.15;;;2.58;;
49015;SDS011;34830;44.064;12.566;2023-09-07T02:36:09;7.70;;;2.50;;
49015;SDS011;34830;44.064;12.566;2023-09-07T02:38:36;5.15;;;2.42;;
49015;SDS011;34830;44.064;12.566;2023-09-07T02:41:02;4.75;;;2.53;;
49015;SDS011;34830;44.064;12.566;2023-09-07T02:43:29;3.88;;;2.40;;
49015;SDS011;34830;44.064;12.566;2023-09-07T02:45:56;3.83;;;2.75;;
49015;SDS011;34830;44.064;12.566;2023-09-07T02:48:22;3.67;;;2.10;;
49015;SDS011;34830;44.064;12.566;2023-09-07T02:50:48;3.53;;;2.50;;
49015;SDS011;34830;44.064;12.566;2023-09-07T02:53:16;4.03;;;2.72;;
49015;SDS011;34830;44.064;12.566;2023-09-07T02:55:42;3.97;;;2.70;;
49015;SDS011;34830;44.064;12.566;2023-09-07T02:58:08;6.40;;;2.65;;
49015;SDS011;34830;44.064;12.566;2023-09-07T03:00:34;4.78;;;3.05;;
49015;SDS011;34830;44.064;12.566;2023-09-07T03:03:01;4.78;;;2.67;;
49015;SDS011;34830;44.064;12.566;2023-09-07T03:05:28;5.03;;;2.85;;
49015;SDS011;34830;44.064;12.566;2023-09-07T03:07:54;3.63;;;2.55;;
49015;SDS011;34830;44.064;12.566;2023-09-07T03:10:20;5.40;;;2.88;;
49015;SDS011;34830;44.064;12.566;2023-09-07T03:12:47;4.47;;;2.60;;
49015;SDS011;34830;44.064;12.566;2023-09-07T03:15:15;5.30;;;2.88;;
49015;SDS011;34830;44.064;12.566;2023-09-07T03:17:42;4.15;;;2.70;;
49015;SDS011;34830;44.064;12.566;2023-09-07T03:20:08;7.32;;;2.67;;
49015;SDS011;34830;44.064;12.566;2023-09-07T03:22:41;5.25;;;2.70;;
49015;SDS011;34830;44.064;12.566;2023-09-07T03:25:08;3.25;;;2.67;;
49015;SDS011;34830;44.064;12.566;2023-09-07T03:27:36;11.82;;;3.33;;
49015;SDS011;34830;44.064;12.566;2023-09-07T03:30:03;5.03;;;3.40;;
49015;SDS011;34830;44.064;12.566;2023-09-07T03:32:31;4.78;;;2.70;;
49015;SDS011;34830;44.064;12.566;2023-09-07T03:35:02;4.35;;;2.45;;
49015;SDS011;34830;44.064;12.566;2023-09-07T03:39:56;3.95;;;2.60;;
49015;SDS011;34830;44.064;12.566;2023-09-07T03:42:22;6.43;;;2.97;;
49015;SDS011;34830;44.064;12.566;2023-09-07T03:44:49;5.30;;;2.88;;
49015;SDS011;34830;44.064;12.566;2023-09-07T03:47:15;4.72;;;3.13;;
49015;SDS011;34830;44.064;12.566;2023-09-07T03:49:42;4.82;;;2.85;;
49015;SDS011;34830;44.064;12.566;2023-09-07T03:52:08;5.40;;;2.83;;
49015;SDS011;34830;44.064;12.566;2023-09-07T03:54:35;6.70;;;3.25;;
49015;SDS011;34830;44.064;12.566;2023-09-07T03:57:01;5.85;;;2.75;;
49015;SDS011;34830;44.064;12.566;2023-09-07T03:59:29;7.47;;;3.63;;
49015;SDS011;34830;44.064;12.566;2023-09-07T04:01:55;7.63;;;2.88;;
49015;SDS011;34830;44.064;12.566;2023-09-07T04:04:21;4.32;;;2.58;;
49015;SDS011;34830;44.064;12.566;2023-09-07T04:06:47;6.43;;;2.63;;
49015;SDS011;34830;44.064;12.566;2023-09-07T04:09:14;10.50;;;4.15;;
49015;SDS011;34830;44.064;12.566;2023-09-07T04:11:40;4.70;;;2.65;;
49015;SDS011;34830;44.064;12.566;2023-09-07T04:14:06;3.38;;;2.50;;
49015;SDS011;34830;44.064;12.566;2023-09-07T04:16:32;10.02;;;2.67;;
49015;SDS011;34830;44.064;12.566;2023-09-07T04:18:58;6.30;;;2.95;;
49015;SDS011;34830;44.064;12.566;2023-09-07T04:21:24;8.07;;;3.03;;
49015;SDS011;34830;44.064;12.566;2023-09-07T04:23:51;6.20;;;2.97;;
49015;SDS011;34830;44.064;12.566;2023-09-07T04:26:17;7.70;;;2.92;;
49015;SDS011;34830;44.064;12.566;2023-09-07T04:28:43;4.63;;;2.75;;
49015;SDS011;34830;44.064;12.566;2023-09-07T04:31:10;5.13;;;2.88;;
49015;SDS011;34830;44.064;12.566;2023-09-07T04:33:36;4.70;;;2.88;;
49015;SDS011;34830;44.064;12.566;2023-09-07T04:36:12;5.22;;;2.67;;
49015;SDS011;34830;44.064;12.566;2023-09-07T04:38:40;7.25;;;2.78;;
49015;SDS011;34830;44.064;12.566;2023-09-07T04:41:07;5.82;;;3.00;;
49015;SDS011;34830;44.064;12.566;2023-09-07T04:43:34;4.32;;;2.60;;
49015;SDS011;34830;44.064;12.566;2023-09-07T04:46:01;4.25;;;2.70;;
49015;SDS011;34830;44.064;12.566;2023-09-07T04:48:27;6.57;;;3.15;;
49015;SDS011;34830;44.064;12.566;2023-09-07T04:50:57;8.80;;;3.28;;
49015;SDS011;34830;44.064;12.566;2023-09-07T04:53:28;4.68;;;2.90;;
49015;SDS011;34830;44.064;12.566;2023-09-07T04:55:55;8.40;;;3.63;;
49015;SDS011;34830;44.064;12.566;2023-09-07T04:58:21;6.53;;;3.38;;
49015;SDS011;34830;44.064;12.566;2023-09-07T05:00:47;10.75;;;3.35;;
49015;SDS011;34830;44.064;12.566;2023-09-07T05:03:13;9.73;;;3.50;;
49015;SDS011;34830;44.064;12.566;2023-09-07T05:05:41;11.57;;;3.53;;
49015;SDS011;34830;44.064;12.566;2023-09-07T05:08:07;12.98;;;4.60;;
49015;SDS011;34830;44.064;12.566;2023-09-07T05:10:33;7.32;;;3.20;;
49015;SDS011;34830;44.064;12.566;2023-09-07T05:13:00;4.70;;;2.90;;
49015;SDS011;34830;44.064;12.566;2023-09-07T05:15:26;8.82;;;4.13;;
49015;SDS011;34830;44.064;12.566;2023-09-07T05:17:52;16.52;;;3.78;;
49015;SDS011;34830;44.064;12.566;2023-09-07T05:20:19;14.30;;;4.05;;
49015;SDS011;34830;44.064;12.566;2023-09-07T05:22:45;12.57;;;3.75;;
49015;SDS011;34830;44.064;12.566;2023-09-07T05:25:12;15.88;;;4.15;;
49015;SDS011;34830;44.064;12.566;2023-09-07T05:27:39;6.28;;;3.40;;
49015;SDS011;34830;44.064;12.566;2023-09-07T05:30:05;11.35;;;3.78;;
49015;SDS011;34830;44.064;12.566;2023-09-07T05:32:32;6.07;;;2.75;;
49015;SDS011;34830;44.064;12.566;2023-09-07T05:34:58;12.70;;;3.38;;
49015;SDS011;34830;44.064;12.566;2023-09-07T05:37:24;10.20;;;4.10;;
49015;SDS011;34830;44.064;12.566;2023-09-07T05:39:50;11.00;;;2.80;;
49015;SDS011;34830;44.064;12.566;2023-09-07T05:42:16;8.40;;;3.72;;
49015;SDS011;34830;44.064;12.566;2023-09-07T05:44:43;5.35;;;3.15;;
49015;SDS011;34830;44.064;12.566;2023-09-07T05:47:09;8.95;;;3.53;;
49015;SDS011;34830;44.064;12.566;2023-09-07T05:49:35;10.40;;;3.65;;
49015;SDS011;34830;44.064;12.566;2023-09-07T05:52:01;12.60;;;3.45;;
49015;SDS011;34830;44.064;12.566;2023-09-07T05:54:28;13.25;;;3.53;;
49015;SDS011;34830;44.064;12.566;2023-09-07T05:56:54;12.52;;;3.35;;
49015;SDS011;34830;44.064;12.566;2023-09-07T05:59:21;10.43;;;3.53;;
49015;SDS011;34830;44.064;12.566;2023-09-07T06:01:47;13.73;;;3.70;;
49015;SDS011;34830;44.064;12.566;2023-09-07T06:04:13;16.23;;;3.88;;
49015;SDS011;34830;44.064;12.566;2023-09-07T06:06:39;10.32;;;4.10;;
49015;SDS011;34830;44.064;12.566;2023-09-07T06:09:05;7.82;;;3.75;;
49015;SDS011;34830;44.064;12.566;2023-09-07T06:11:32;14.65;;;4.32;;
49015;SDS011;34830;44.064;12.566;2023-09-07T06:13:59;14.80;;;4.50;;
49015;SDS011;34830;44.064;12.566;2023-09-07T06:16:25;11.18;;;3.67;;
49015;SDS011;34830;44.064;12.566;2023-09-07T06:18:51;12.05;;;3.30;;
49015;SDS011;34830;44.064;12.566;2023-09-07T06:21:17;15.48;;;4.40;;
49015;SDS011;34830;44.064;12.566;2023-09-07T06:23:44;5.30;;;3.17;;
49015;SDS011;34830;44.064;12.566;2023-09-07T06:26:10;9.93;;;3.60;;
49015;SDS011;34830;44.064;12.566;2023-09-07T06:28:36;8.50;;;2.85;;
49015;SDS011;34830;44.064;12.566;2023-09-07T06:31:03;10.27;;;2.80;;
49015;SDS011;34830;44.064;12.566;2023-09-07T06:33:29;5.53;;;3.25;;
49015;SDS011;34830;44.064;12.566;2023-09-07T06:35:55;5.70;;;3.13;;
49015;SDS011;34830;44.064;12.566;2023-09-07T06:38:27;9.43;;;4.93;;
49015;SDS011;34830;44.064;12.566;2023-09-07T06:40:53;6.47;;;3.78;;
49015;SDS011;34830;44.064;12.566;2023-09-07T06:43:20;6.93;;;3.00;;
49015;SDS011;34830;44.064;12.566;2023-09-07T06:45:47;4.82;;;2.63;;
49015;SDS011;34830;44.064;12.566;2023-09-07T06:48:14;9.40;;;3.60;;
49015;SDS011;34830;44.064;12.566;2023-09-07T06:50:40;7.28;;;3.90;;
49015;SDS011;34830;44.064;12.566;2023-09-07T06:53:06;10.30;;;3.35;;
49015;SDS011;34830;44.064;12.566;2023-09-07T06:55:34;12.52;;;3.45;;
49015;SDS011;34830;44.064;12.566;2023-09-07T06:58:00;6.90;;;3.45;;
49015;SDS011;34830;44.064;12.566;2023-09-07T07:00:27;7.55;;;3.33;;
49015;SDS011;34830;44.064;12.566;2023-09-07T07:02:53;6.68;;;2.88;;
49015;SDS011;34830;44.064;12.566;2023-09-07T07:05:20;5.97;;;3.33;;
49015;SDS011;34830;44.064;12.566;2023-09-07T07:07:48;10.02;;;2.90;;
49015;SDS011;34830;44.064;12.566;2023-09-07T07:10:14;10.80;;;2.88;;
49015;SDS011;34830;44.064;12.566;2023-09-07T07:12:40;9.02;;;3.17;;
49015;SDS011;34830;44.064;12.566;2023-09-07T07:15:07;9.90;;;3.22;;
49015;SDS011;34830;44.064;12.566;2023-09-07T07:17:33;8.65;;;3.33;;
49015;SDS011;34830;44.064;12.566;2023-09-07T07:19:59;6.50;;;3.05;;
49015;SDS011;34830;44.064;12.566;2023-09-07T07:22:26;6.32;;;2.50;;
49015;SDS011;34830;44.064;12.566;2023-09-07T07:24:52;8.52;;;2.80;;
49015;SDS011;34830;44.064;12.566;2023-09-07T07:27:20;6.65;;;3.25;;
49015;SDS011;34830;44.064;12.566;2023-09-07T07:29:46;7.28;;;3.20;;
49015;SDS011;34830;44.064;12.566;2023-09-07T07:32:13;15.48;;;3.28;;
49015;SDS011;34830;44.064;12.566;2023-09-07T07:34:39;6.68;;;3.08;;
49015;SDS011;34830;44.064;12.566;2023-09-07T07:37:05;4.80;;;2.67;;
49015;SDS011;34830;44.064;12.566;2023-09-07T07:39:32;6.75;;;2.72;;
49015;SDS011;34830;44.064;12.566;2023-09-07T07:41:58;10.52;;;3.40;;
49015;SDS011;34830;44.064;12.566;2023-09-07T07:44:24;6.38;;;3.00;;
49015;SDS011;34830;44.064;12.566;2023-09-07T07:46:51;7.75;;;3.38;;
49015;SDS011;34830;44.064;12.566;2023-09-07T07:49:17;4.20;;;2.80;;
49015;SDS011;34830;44.064;12.566;2023-09-07T07:51:43;10.10;;;3.10;;
49015;SDS011;34830;44.064;12.566;2023-09-07T07:54:09;11.95;;;3.38;;
49015;SDS011;34830;44.064;12.566;2023-09-07T07:56:35;9.88;;;3.53;;
49015;SDS011;34830;44.064;12.566;2023-09-07T07:59:02;8.63;;;3.28;;
49015;SDS011;34830;44.064;12.566;2023-09-07T08:01:29;7.22;;;3.17;;
49015;SDS011;34830;44.064;12.566;2023-09-07T08:03:57;6.60;;;2.65;;
49015;SDS011;34830;44.064;12.566;2023-09-07T08:06:24;7.32;;;3.35;;
49015;SDS011;34830;44.064;12.566;2023-09-07T08:08:50;7.30;;;3.65;;
49015;SDS011;34830;44.064;12.566;2023-09-07T08:11:17;5.53;;;3.60;;
49015;SDS011;34830;44.064;12.566;2023-09-07T08:13:47;12.27;;;3.80;;
49015;SDS011;34830;44.064;12.566;2023-09-07T08:16:14;9.70;;;3.50;;
49015;SDS011;34830;44.064;12.566;2023-09-07T08:18:40;7.57;;;3.22;;
49015;SDS011;34830;44.064;12.566;2023-09-07T08:21:07;8.77;;;3.72;;
49015;SDS011;34830;44.064;12.566;2023-09-07T08:23:33;8.00;;;4.40;;
49015;SDS011;34830;44.064;12.566;2023-09-07T08:25:59;7.45;;;2.85;;
49015;SDS011;34830;44.064;12.566;2023-09-07T08:28:26;5.85;;;3.33;;
49015;SDS011;34830;44.064;12.566;2023-09-07T08:30:54;14.50;;;4.00;;
49015;SDS011;34830;44.064;12.566;2023-09-07T08:33:21;7.20;;;3.20;;
49015;SDS011;34830;44.064;12.566;2023-09-07T08:35:54;5.65;;;3.17;;
49015;SDS011;34830;44.064;12.566;2023-09-07T08:38:22;6.03;;;3.58;;
49015;SDS011;34830;44.064;12.566;2023-09-07T08:40:53;6.60;;;3.45;;
49015;SDS011;34830;44.064;12.566;2023-09-07T08:43:21;11.40;;;4.35;;
49015;SDS011;34830;44.064;12.566;2023-09-07T08:45:51;7.45;;;4.00;;
49015;SDS011;34830;44.064;12.566;2023-09-07T08:48:25;8.63;;;3.42;;
49015;SDS011;34830;44.064;12.566;2023-09-07T08:50:52;5.72;;;3.67;;
49015;SDS011;34830;44.064;12.566;2023-09-07T08:53:19;11.05;;;3.70;;
49015;SDS011;34830;44.064;12.566;2023-09-07T08:55:48;6.20;;;3.80;;
49015;SDS011;34830;44.064;12.566;2023-09-07T08:58:14;7.70;;;4.18;;
49015;SDS011;34830;44.064;12.566;2023-09-07T09:00:40;10.93;;;4.07;;
49015;SDS011;34830;44.064;12.566;2023-09-07T09:03:09;7.20;;;3.28;;
49015;SDS011;34830;44.064;12.566;2023-09-07T09:05:38;10.25;;;3.55;;
49015;SDS011;34830;44.064;12.566;2023-09-07T09:08:05;11.60;;;4.97;;
49015;SDS011;34830;44.064;12.566;2023-09-07T09:10:31;9.73;;;3.63;;
49015;SDS011;34830;44.064;12.566;2023-09-07T09:12:57;8.07;;;3.22;;
49015;SDS011;34830;44.064;12.566;2023-09-07T09:15:25;7.40;;;3.78;;
49015;SDS011;34830;44.064;12.566;2023-09-07T09:17:54;8.60;;;3.90;;
49015;SDS011;34830;44.064;12.566;2023-09-07T09:20:21;10.55;;;4.00;;
49015;SDS011;34830;44.064;12.566;2023-09-07T09:22:51;11.13;;;3.40;;
49015;SDS011;34830;44.064;12.566;2023-09-07T09:25:19;6.30;;;3.33;;
49015;SDS011;34830;44.064;12.566;2023-09-07T09:27:45;7.35;;;3.70;;
49015;SDS011;34830;44.064;12.566;2023-09-07T09:30:12;7.60;;;3.45;;
49015;SDS011;34830;44.064;12.566;2023-09-07T09:32:41;10.70;;;3.47;;
49015;SDS011;34830;44.064;12.566;2023-09-07T09:35:08;10.13;;;3.60;;
49015;SDS011;34830;44.064;12.566;2023-09-07T09:37:45;7.05;;;3.45;;
49015;SDS011;34830;44.064;12.566;2023-09-07T09:40:12;10.43;;;3.92;;
49015;SDS011;34830;44.064;12.566;2023-09-07T09:42:42;11.95;;;4.13;;
49015;SDS011;34830;44.064;12.566;2023-09-07T09:45:10;7.03;;;4.38;;
49015;SDS011;34830;44.064;12.566;2023-09-07T09:47:38;7.65;;;3.67;;
49015;SDS011;34830;44.064;12.566;2023-09-07T09:50:06;10.02;;;4.90;;
49015;SDS011;34830;44.064;12.566;2023-09-07T09:52:34;13.20;;;4.32;;
49015;SDS011;34830;44.064;12.566;2023-09-07T09:55:06;6.28;;;4.43;;
49015;SDS011;34830;44.064;12.566;2023-09-07T09:57:34;10.10;;;4.30;;
49015;SDS011;34830;44.064;12.566;2023-09-07T10:00:01;10.07;;;4.20;;
49015;SDS011;34830;44.064;12.566;2023-09-07T10:05:26;7.20;;;4.05;;
49015;SDS011;34830;44.064;12.566;2023-09-07T10:07:52;6.65;;;4.35;;
49015;SDS011;34830;44.064;12.566;2023-09-07T10:10:19;8.02;;;4.50;;
49015;SDS011;34830;44.064;12.566;2023-09-07T10:12:50;9.45;;;4.70;;
49015;SDS011;34830;44.064;12.566;2023-09-07T10:15:24;5.13;;;3.80;;
49015;SDS011;34830;44.064;12.566;2023-09-07T10:18:14;6.72;;;4.03;;
49015;SDS011;34830;44.064;12.566;2023-09-07T10:20:55;11.98;;;4.22;;
49015;SDS011;34830;44.064;12.566;2023-09-07T10:26:03;5.55;;;3.60;;
49015;SDS011;34830;44.064;12.566;2023-09-07T10:28:30;7.45;;;3.92;;
49015;SDS011;34830;44.064;12.566;2023-09-07T10:31:00;8.05;;;4.30;;
49015;SDS011;34830;44.064;12.566;2023-09-07T10:33:29;6.53;;;4.10;;
49015;SDS011;34830;44.064;12.566;2023-09-07T10:35:56;8.20;;;3.38;;
49015;SDS011;34830;44.064;12.566;2023-09-07T10:38:23;7.80;;;3.92;;
49015;SDS011;34830;44.064;12.566;2023-09-07T10:40:54;11.88;;;3.88;;
49015;SDS011;34830;44.064;12.566;2023-09-07T10:43:29;7.18;;;4.15;;
49015;SDS011;34830;44.064;12.566;2023-09-07T10:45:57;7.28;;;4.55;;
49015;SDS011;34830;44.064;12.566;2023-09-07T10:48:24;7.40;;;4.53;;
49015;SDS011;34830;44.064;12.566;2023-09-07T10:50:51;22.38;;;5.07;;
49015;SDS011;34830;44.064;12.566;2023-09-07T10:53:24;9.27;;;4.32;;
49015;SDS011;34830;44.064;12.566;2023-09-07T10:55:53;7.97;;;4.07;;
49015;SDS011;34830;44.064;12.566;2023-09-07T10:58:31;7.35;;;3.50;;
49015;SDS011;34830;44.064;12.566;2023-09-07T11:00:58;5.75;;;3.38;;
49015;SDS011;34830;44.064;12.566;2023-09-07T11:03:25;6.50;;;4.10;;
49015;SDS011;34830;44.064;12.566;2023-09-07T11:05:56;7.00;;;4.15;;
49015;SDS011;34830;44.064;12.566;2023-09-07T11:08:24;12.32;;;3.72;;
49015;SDS011;34830;44.064;12.566;2023-09-07T11:10:50;13.32;;;3.80;;
49015;SDS011;34830;44.064;12.566;2023-09-07T11:13:20;8.63;;;3.08;;
49015;SDS011;34830;44.064;12.566;2023-09-07T11:15:47;5.82;;;4.32;;
49015;SDS011;34830;44.064;12.566;2023-09-07T11:18:13;6.28;;;3.40;;
49015;SDS011;34830;44.064;12.566;2023-09-07T11:20:39;5.75;;;2.90;;
49015;SDS011;34830;44.064;12.566;2023-09-07T11:23:05;5.05;;;2.60;;
49015;SDS011;34830;44.064;12.566;2023-09-07T11:25:36;7.15;;;3.67;;
49015;SDS011;34830;44.064;12.566;2023-09-07T11:28:06;10.27;;;2.58;;
49015;SDS011;34830;44.064;12.566;2023-09-07T11:30:34;5.30;;;2.20;;
49015;SDS011;34830;44.064;12.566;2023-09-07T11:33:07;8.23;;;3.25;;
49015;SDS011;34830;44.064;12.566;2023-09-07T11:35:34;3.95;;;2.90;;
49015;SDS011;34830;44.064;12.566;2023-09-07T11:38:00;6.15;;;3.22;;
49015;SDS011;34830;44.064;12.566;2023-09-07T11:40:27;4.47;;;2.60;;
49015;SDS011;34830;44.064;12.566;2023-09-07T11:42:53;7.63;;;2.75;;
49015;SDS011;34830;44.064;12.566;2023-09-07T11:45:20;3.97;;;2.80;;
49015;SDS011;34830;44.064;12.566;2023-09-07T11:47:46;9.63;;;3.40;;
49015;SDS011;34830;44.064;12.566;2023-09-07T11:50:13;5.13;;;2.60;;
49015;SDS011;34830;44.064;12.566;2023-09-07T11:52:39;5.90;;;2.53;;
49015;SDS011;34830;44.064;12.566;2023-09-07T11:55:05;7.43;;;2.45;;
49015;SDS011;34830;44.064;12.566;2023-09-07T11:57:31;4.75;;;2.40;;
49015;SDS011;34830;44.064;12.566;2023-09-07T11:59:57;4.88;;;2.65;;
49015;SDS011;34830;44.064;12.566;2023-09-07T12:02:23;4.20;;;2.60;;
49015;SDS011;34830;44.064;12.566;2023-09-07T12:04:49;6.97;;;2.88;;
49015;SDS011;34830;44.064;12.566;2023-09-07T12:07:15;7.00;;;3.08;;
49015;SDS011;34830;44.064;12.566;2023-09-07T12:09:41;3.80;;;2.42;;
49015;SDS011;34830;44.064;12.566;2023-09-07T12:12:07;3.75;;;2.53;;
49015;SDS011;34830;44.064;12.566;2023-09-07T12:14:34;7.05;;;3.00;;
49015;SDS011;34830;44.064;12.566;2023-09-07T12:17:00;6.38;;;2.45;;
49015;SDS011;34830;44.064;12.566;2023-09-07T12:19:26;6.18;;;2.58;;
49015;SDS011;34830;44.064;12.566;2023-09-07T12:21:52;6.63;;;3.65;;
49015;SDS011;34830;44.064;12.566;2023-09-07T12:24:18;4.25;;;2.50;;
49015;SDS011;34830;44.064;12.566;2023-09-07T12:26:44;5.03;;;2.50;;
49015;SDS011;34830;44.064;12.566;2023-09-07T12:29:10;5.05;;;2.38;;
49015;SDS011;34830;44.064;12.566;2023-09-07T12:31:36;5.53;;;2.50;;
49015;SDS011;34830;44.064;12.566;2023-09-07T12:34:02;6.25;;;2.30;;
49015;SDS011;34830;44.064;12.566;2023-09-07T12:36:28;5.10;;;2.58;;
49015;SDS011;34830;44.064;12.566;2023-09-07T12:38:55;5.15;;;2.75;;
49015;SDS011;34830;44.064;12.566;2023-09-07T12:41:29;10.73;;;5.32;;
49015;SDS011;34830;44.064;12.566;2023-09-07T12:43:56;5.95;;;2.75;;
49015;SDS011;34830;44.064;12.566;2023-09-07T12:46:22;5.05;;;2.42;;
49015;SDS011;34830;44.064;12.566;2023-09-07T12:48:48;5.35;;;2.45;;
49015;SDS011;34830;44.064;12.566;2023-09-07T12:51:14;14.20;;;2.78;;
49015;SDS011;34830;44.064;12.566;2023-09-07T12:53:41;4.25;;;2.67;;
49015;SDS011;34830;44.064;12.566;2023-09-07T12:56:07;8.05;;;2.85;;
49015;SDS011;34830;44.064;12.566;2023-09-07T12:58:33;7.15;;;2.70;;
49015;SDS011;34830;44.064;12.566;2023-09-07T13:00:59;6.32;;;2.78;;
49015;SDS011;34830;44.064;12.566;2023-09-07T13:03:26;4.72;;;2.70;;
49015;SDS011;34830;44.064;12.566;2023-09-07T13:05:52;5.88;;;2.80;;
49015;SDS011;34830;44.064;12.566;2023-09-07T13:08:18;6.85;;;2.28;;
49015;SDS011;34830;44.064;12.566;2023-09-07T13:10:44;10.05;;;3.90;;
49015;SDS011;34830;44.064;12.566;2023-09-07T13:13:10;10.10;;;2.80;;
49015;SDS011;34830;44.064;12.566;2023-09-07T13:15:36;4.20;;;2.67;;
49015;SDS011;34830;44.064;12.566;2023-09-07T13:18:02;5.35;;;3.03;;
49015;SDS011;34830;44.064;12.566;2023-09-07T13:20:28;5.82;;;3.05;;
49015;SDS011;34830;44.064;12.566;2023-09-07T13:22:54;6.53;;;2.85;;
49015;SDS011;34830;44.064;12.566;2023-09-07T13:25:21;9.60;;;3.08;;
49015;SDS011;34830;44.064;12.566;2023-09-07T13:27:47;7.30;;;3.20;;
49015;SDS011;34830;44.064;12.566;2023-09-07T13:30:13;5.70;;;2.75;;
49015;SDS011;34830;44.064;12.566;2023-09-07T13:32:39;8.90;;;3.03;;
49015;SDS011;34830;44.064;12.566;2023-09-07T13:35:05;7.07;;;3.25;;
49015;SDS011;34830;44.064;12.566;2023-09-07T13:37:31;6.85;;;3.00;;
49015;SDS011;34830;44.064;12.566;2023-09-07T13:39:57;5.03;;;3.28;;
49015;SDS011;34830;44.064;12.566;2023-09-07T13:42:24;23.42;;;3.90;;
49015;SDS011;34830;44.064;12.566;2023-09-07T13:44:51;5.55;;;3.35;;
49015;SDS011;34830;44.064;12.566;2023-09-07T13:47:18;8.68;;;3.80;;
49015;SDS011;34830;44.064;12.566;2023-09-07T13:49:44;10.30;;;3.72;;
49015;SDS011;34830;44.064;12.566;2023-09-07T13:52:10;11.63;;;4.82;;
49015;SDS011;34830;44.064;12.566;2023-09-07T13:54:36;6.85;;;3.83;;
49015;SDS011;34830;44.064;12.566;2023-09-07T13:57:02;10.77;;;3.03;;
49015;SDS011;34830;44.064;12.566;2023-09-07T13:59:28;8.25;;;3.40;;
49015;SDS011;34830;44.064;12.566;2023-09-07T14:01:58;6.93;;;3.38;;
49015;SDS011;34830;44.064;12.566;2023-09-07T14:04:24;6.82;;;3.08;;
49015;SDS011;34830;44.064;12.566;2023-09-07T14:06:51;6.50;;;3.30;;
49015;SDS011;34830;44.064;12.566;2023-09-07T14:09:17;9.98;;;3.97;;
49015;SDS011;34830;44.064;12.566;2023-09-07T14:11:43;8.80;;;4.00;;
49015;SDS011;34830;44.064;12.566;2023-09-07T14:14:09;5.72;;;3.53;;
49015;SDS011;34830;44.064;12.566;2023-09-07T14:16:36;7.55;;;3.58;;
49015;SDS011;34830;44.064;12.566;2023-09-07T14:19:02;7.15;;;3.53;;
49015;SDS011;34830;44.064;12.566;2023-09-07T14:21:28;8.48;;;4.43;;
49015;SDS011;34830;44.064;12.566;2023-09-07T14:23:54;6.28;;;3.55;;
49015;SDS011;34830;44.064;12.566;2023-09-07T14:26:21;7.85;;;3.75;;
49015;SDS011;34830;44.064;12.566;2023-09-07T14:28:47;7.43;;;3.70;;
49015;SDS011;34830;44.064;12.566;2023-09-07T14:31:13;10.40;;;4.22;;
49015;SDS011;34830;44.064;12.566;2023-09-07T14:33:39;6.38;;;3.67;;
49015;SDS011;34830;44.064;12.566;2023-09-07T14:36:08;11.20;;;3.60;;
49015;SDS011;34830;44.064;12.566;2023-09-07T14:38:34;7.80;;;3.90;;